createdAt,value
2023-05-09T04:06:24.180Z,101427.56
2023-05-09T04:12:26.761Z,101430.22
2023-05-09T04:18:29.308Z,101438.69
2023-05-09T04:24:32.963Z,101441.63
2023-05-09T04:30:38.162Z,101450.06
2023-05-09T04:36:40.830Z,101451.13
2023-05-09T04:42:45.714Z,101450.34
2023-05-09T04:48:49.193Z,101450.34
2023-05-09T04:54:51.690Z,101456.41
2023-05-09T05:00:56.784Z,101448.16
2023-05-09T05:06:59.976Z,101444.19
2023-05-09T05:13:02.826Z,101449.47
2023-05-09T05:19:05.589Z,101457.88
2023-05-09T05:25:13.579Z,101461.25
2023-05-09T05:31:20.127Z,101463.75
2023-05-09T05:37:24.609Z,101460.56
2023-05-09T05:43:32.549Z,101469.03
2023-05-09T05:49:38.495Z,101464.66
2023-05-09T05:55:41.825Z,101479.09
2023-05-09T06:01:44.235Z,101475.44
2023-05-09T06:07:47.405Z,101463.31
2023-05-09T06:13:49.782Z,101466.63
2023-05-09T06:19:52.540Z,101448.22
2023-05-09T06:25:55.794Z,101450.38
2023-05-09T06:31:58.011Z,101443.69
2023-05-09T06:38:00.271Z,101451.59
2023-05-09T06:44:03.310Z,101446.66
2023-05-09T06:50:07.442Z,101438.63
2023-05-09T06:56:10.802Z,101446.84
2023-05-09T07:02:14.284Z,101440.41
2023-05-09T07:08:16.568Z,101439.34
2023-05-09T07:14:20.060Z,101435.69
2023-05-09T07:20:22.225Z,101443.53
2023-05-09T07:26:26.013Z,101435.19
2023-05-09T07:32:30.708Z,101438.00
2023-05-09T07:38:33.795Z,101440.53
2023-05-09T07:44:36.700Z,101440.06
2023-05-09T07:50:41.186Z,101430.38
2023-05-09T07:56:48.754Z,101439.06
2023-05-09T08:02:54.904Z,101431.09
2023-05-09T08:09:01.308Z,101430.69
